To NAV CANADA Home Page Login to a new session Search on AWWS site Feedback and Comments Disclaimer Vers la page française équivalente Tips FAQ What's new on the site To the Forecasts and Observations / NOTAM section To "File a Flight Plan" website Publications and other links Update of the User's profile FIC Telephone Numbers My Weather Data Folder Route Weather Data Regional Weather Data Local Weather Data To the Forecasts and Observations / NOTAM section
Request Generated 08/29/2016 at 03:34:31 UTC . Weather information available at that time is displayed.

METAR/TAF

TRENTON/ON    

METAR CYTR 290300Z 32010KT 15SM FEW046 22/16 A3012 RMK SC2 SLP200=
METAR CYTR 290200Z 31011KT 15SM FEW054 24/17 A3010 RMK SC1 SLP193=
METAR CYTR 290100Z 31012KT 15SM FEW052 FEW140 BKN240 25/18 A3009 RMK SC2AC1CI1 SLP189=

TAF CYTR 282330Z 2900/2924 22010KT P6SM SCT030 BKN250
BECMG 2900/2902 27010KT
FM290300 32010KT P6SM FEW025
FM290900 34010KT P6SM SCT015
FM291800 32010KT P6SM SCT030
BECMG 2920/2922 27010KT
RMK NXT FCST BY 290600Z=
Your time UTC time
Weather data provided by Environment Canada and NAV CANADA